createdAt,value
2018-11-29T00:01:41.718Z,23.48
2018-11-29T00:02:41.773Z,24.34
2018-11-29T00:04:34.756Z,24.24
2018-11-29T00:05:34.808Z,24.91
2018-11-29T00:07:27.782Z,24.91
2018-11-29T00:08:27.844Z,24.43
2018-11-29T00:10:20.825Z,24.34
2018-11-29T00:11:20.875Z,24.24
2018-11-29T00:13:13.852Z,25.01
2018-11-29T00:14:13.909Z,24.91
2018-11-29T00:16:06.896Z,25.01
2018-11-29T00:17:06.939Z,25.01
2018-11-29T00:18:59.929Z,25.20
2018-11-29T00:19:59.973Z,25.38
2018-11-29T00:21:52.964Z,25.57
2018-11-29T00:22:53.017Z,25.57
2018-11-29T00:24:46.005Z,25.76
2018-11-29T00:25:46.054Z,25.48
2018-11-29T00:27:39.030Z,25.57
2018-11-29T00:28:39.099Z,25.29
2018-11-29T00:30:32.076Z,25.38
2018-11-29T00:31:32.121Z,25.67
2018-11-29T00:33:25.095Z,25.57
2018-11-29T00:34:25.153Z,26.14
2018-11-29T00:36:18.649Z,25.76
2018-11-29T00:37:18.695Z,26.64
2018-11-29T00:39:11.696Z,25.49
2018-11-29T00:40:11.738Z,24.92
2018-11-29T00:42:04.715Z,25.86
2018-11-29T00:43:04.771Z,25.76
2018-11-29T00:44:57.758Z,25.48
2018-11-29T00:45:57.804Z,25.59
2018-11-29T00:47:50.780Z,25.95
2018-11-29T00:48:50.839Z,26.43
2018-11-29T00:50:43.827Z,26.62
2018-11-29T00:51:43.879Z,25.76
2018-11-29T00:53:36.856Z,24.91
2018-11-29T00:54:36.910Z,25.68
2018-11-29T00:56:29.893Z,25.59
2018-11-29T00:57:29.941Z,25.57
2018-11-29T00:59:22.937Z,26.64
2018-11-29T01:00:22.976Z,26.24
2018-11-29T01:02:15.961Z,25.78
2018-11-29T01:03:16.021Z,25.57
2018-11-29T01:05:09.014Z,26.73
2018-11-29T01:06:09.065Z,26.64
2018-11-29T01:08:02.051Z,27.49
2018-11-29T01:09:02.105Z,27.30
2018-11-29T01:10:55.094Z,27.78
2018-11-29T01:11:55.142Z,27.20
2018-11-29T01:13:48.120Z,27.49
2018-11-29T01:14:48.178Z,26.44
2018-11-29T01:16:41.171Z,27.49
2018-11-29T01:17:41.221Z,27.58
2018-11-29T01:19:34.214Z,27.87
2018-11-29T01:20:34.263Z,28.34
2018-11-29T01:22:27.254Z,27.68
2018-11-29T01:23:27.319Z,27.49
2018-11-29T01:25:20.285Z,28.06
2018-11-29T01:26:20.338Z,27.11
2018-11-29T01:28:13.312Z,28.44
2018-11-29T01:29:13.368Z,27.58
2018-11-29T01:31:06.356Z,28.53
2018-11-29T01:32:06.405Z,28.82
2018-11-29T01:33:59.389Z,28.06
2018-11-29T01:34:59.447Z,28.72
2018-11-29T01:36:52.941Z,28.53
2018-11-29T01:37:52.991Z,28.53
2018-11-29T01:39:45.972Z,29.11
2018-11-29T01:40:46.027Z,29.49
2018-11-29T01:42:39.013Z,28.16
2018-11-29T01:43:39.336Z,28.34
2018-11-29T01:45:32.047Z,28.44
2018-11-29T01:46:32.095Z,29.20
2018-11-29T01:48:25.086Z,29.20
2018-11-29T01:49:25.142Z,29.20
2018-11-29T01:51:18.134Z,30.06
2018-11-29T01:52:18.183Z,30.25
2018-11-29T01:54:11.167Z,29.20
2018-11-29T01:55:11.220Z,29.11
2018-11-29T01:57:04.208Z,30.73
2018-11-29T01:58:04.261Z,30.91
2018-11-29T01:59:57.229Z,30.15
2018-11-29T02:00:57.294Z,30.15
2018-11-29T02:02:50.283Z,30.44
2018-11-29T02:03:50.329Z,30.63
2018-11-29T02:05:43.319Z,31.77
2018-11-29T02:06:43.367Z,31.58
2018-11-29T02:08:36.347Z,32.06
2018-11-29T02:09:36.402Z,31.79
2018-11-29T02:11:29.388Z,32.15
2018-11-29T02:12:29.438Z,31.40
2018-11-29T02:14:22.415Z,31.21
2018-11-29T02:15:22.475Z,31.29
2018-11-29T02:17:15.456Z,32.07
2018-11-29T02:18:15.509Z,31.68
2018-11-29T02:20:08.490Z,31.88
2018-11-29T02:21:08.576Z,31.88
2018-11-29T02:23:01.523Z,31.98
2018-11-29T02:24:01.575Z,32.07
2018-11-29T02:25:54.553Z,32.83
2018-11-29T02:26:54.608Z,32.17
2018-11-29T02:28:47.598Z,31.69
2018-11-29T02:29:47.659Z,32.55
2018-11-29T02:31:40.633Z,32.55
2018-11-29T02:32:40.688Z,32.26
2018-11-29T02:34:33.674Z,32.26
2018-11-29T02:35:33.724Z,32.07
2018-11-29T02:37:26.711Z,32.26
2018-11-29T02:38:26.757Z,32.26
2018-11-29T02:40:19.735Z,32.35
2018-11-29T02:41:19.792Z,32.26
2018-11-29T02:43:12.775Z,31.88
2018-11-29T02:44:12.826Z,32.17
2018-11-29T02:46:05.804Z,31.88
2018-11-29T02:47:05.860Z,32.55
2018-11-29T02:48:58.850Z,32.74
2018-11-29T02:49:58.895Z,33.59
2018-11-29T02:51:51.878Z,33.97
2018-11-29T02:52:51.929Z,33.88
2018-11-29T02:54:44.913Z,33.03
2018-11-29T02:55:44.963Z,33.59
2018-11-29T02:57:37.956Z,34.36
2018-11-29T02:58:38.013Z,34.36
2018-11-29T03:00:30.979Z,34.45
2018-11-29T03:01:31.036Z,34.74
2018-11-29T03:03:24.027Z,35.02
2018-11-29T03:04:24.098Z,34.92
2018-11-29T03:06:17.057Z,35.31
2018-11-29T03:07:17.113Z,34.55
2018-11-29T03:09:10.101Z,34.83
2018-11-29T03:10:10.146Z,34.17
2018-11-29T03:12:03.131Z,33.69
2018-11-29T03:13:03.190Z,33.31
2018-11-29T03:14:56.179Z,33.78
2018-11-29T03:15:56.235Z,34.64
2018-11-29T03:17:49.213Z,34.26
2018-11-29T03:18:49.260Z,34.64
2018-11-29T03:20:42.237Z,34.36
2018-11-29T03:21:42.293Z,34.74
2018-11-29T03:23:35.279Z,34.83
2018-11-29T03:24:35.327Z,34.83
2018-11-29T03:26:28.309Z,35.31
2018-11-29T03:27:28.365Z,34.92
2018-11-29T03:29:21.350Z,35.40
2018-11-29T03:30:21.441Z,35.21
2018-11-29T03:32:14.385Z,35.97
2018-11-29T03:33:14.442Z,35.97
2018-11-29T03:35:07.431Z,36.83
2018-11-29T03:36:07.481Z,36.45
2018-11-29T03:38:00.461Z,37.59
2018-11-29T03:39:00.512Z,36.26
2018-11-29T03:40:53.502Z,37.02
2018-11-29T03:41:53.558Z,37.97
2018-11-29T03:43:46.552Z,38.47
2018-11-29T03:44:46.599Z,38.37
2018-11-29T03:46:39.583Z,37.78
2018-11-29T03:47:39.640Z,37.21
2018-11-29T03:49:32.630Z,38.47
2018-11-29T03:50:32.673Z,38.85
2018-11-29T03:52:25.655Z,37.90
2018-11-29T03:53:25.709Z,38.56
2018-11-29T03:55:18.692Z,38.28
2018-11-29T03:56:18.741Z,37.49
2018-11-29T03:58:11.743Z,38.09
2018-11-29T03:59:11.779Z,37.42
2018-11-29T04:01:04.761Z,38.09
2018-11-29T04:02:04.821Z,37.69
2018-11-29T04:03:57.803Z,37.69
2018-11-29T04:04:57.858Z,38.18
2018-11-29T04:06:50.839Z,38.47
2018-11-29T04:07:50.898Z,37.80
2018-11-29T04:09:43.886Z,38.47
2018-11-29T04:10:43.931Z,38.35
2018-11-29T04:12:36.911Z,39.70
2018-11-29T04:13:36.967Z,39.14
2018-11-29T04:15:29.957Z,38.18
2018-11-29T04:16:30.003Z,38.95
2018-11-29T04:18:22.994Z,38.37
2018-11-29T04:19:23.040Z,39.04
2018-11-29T04:21:16.023Z,39.42
2018-11-29T04:22:16.076Z,39.04
2018-11-29T04:24:09.060Z,38.95
2018-11-29T04:25:09.110Z,38.66
2018-11-29T04:27:02.088Z,39.32
2018-11-29T04:28:02.146Z,39.04
2018-11-29T04:29:55.139Z,38.85
2018-11-29T04:30:55.196Z,39.23
2018-11-29T04:32:48.249Z,39.51
2018-11-29T04:33:48.226Z,39.61
2018-11-29T04:35:41.217Z,39.14
2018-11-29T04:36:41.262Z,39.32
2018-11-29T04:38:34.255Z,39.99
2018-11-29T04:39:34.306Z,40.18
2018-11-29T04:41:27.284Z,39.51
2018-11-29T04:42:27.344Z,38.37
2018-11-29T04:44:20.327Z,37.80
2018-11-29T04:45:20.377Z,37.42
2018-11-29T04:47:13.361Z,35.42
2018-11-29T04:48:13.418Z,37.04
2018-11-29T04:50:06.402Z,34.47
2018-11-29T04:51:06.453Z,33.04
2018-11-29T04:52:59.433Z,33.61
2018-11-29T04:53:59.488Z,34.56
2018-11-29T04:55:52.479Z,32.95
2018-11-29T04:56:52.524Z,32.95
2018-11-29T04:58:45.511Z,32.45
2018-11-29T04:59:45.560Z,32.26
2018-11-29T05:01:38.546Z,32.35
2018-11-29T05:02:38.597Z,32.74
2018-11-29T05:04:31.586Z,31.79
2018-11-29T05:05:31.633Z,32.93
2018-11-29T05:07:24.612Z,33.03
2018-11-29T05:08:24.669Z,33.50
2018-11-29T05:10:17.659Z,33.97
2018-11-29T05:11:17.703Z,33.69
2018-11-29T05:13:10.689Z,35.50
2018-11-29T05:14:10.744Z,35.31
2018-11-29T05:16:03.729Z,35.02
2018-11-29T05:17:03.779Z,35.78
2018-11-29T05:18:56.763Z,35.31
2018-11-29T05:19:56.813Z,35.42
2018-11-29T05:21:49.804Z,35.71
2018-11-29T05:22:49.850Z,35.21
2018-11-29T05:24:42.835Z,35.88
2018-11-29T05:25:42.886Z,35.31
2018-11-29T05:27:35.863Z,35.40
2018-11-29T05:28:35.919Z,36.57
2018-11-29T05:30:28.911Z,36.28
2018-11-29T05:31:28.965Z,35.31
2018-11-29T05:33:21.942Z,35.78
2018-11-29T05:34:21.999Z,35.21
2018-11-29T05:36:15.495Z,35.80
2018-11-29T05:37:15.541Z,35.40
2018-11-29T05:39:08.610Z,37.42
2018-11-29T05:40:08.658Z,37.88
2018-11-29T05:42:01.643Z,37.04
2018-11-29T05:43:01.699Z,36.94
2018-11-29T05:44:54.690Z,38.37
2018-11-29T05:45:54.737Z,36.94
2018-11-29T05:47:47.719Z,36.76
2018-11-29T05:48:47.778Z,36.18
2018-11-29T05:50:40.762Z,35.33
2018-11-29T05:51:40.813Z,35.02
2018-11-29T05:53:33.795Z,35.31
2018-11-29T05:54:33.853Z,35.12
2018-11-29T05:56:26.845Z,35.78
2018-11-29T05:57:26.889Z,35.04
2018-11-29T05:59:19.874Z,35.42
2018-11-29T06:00:19.925Z,35.33
2018-11-29T06:02:12.905Z,36.18
2018-11-29T06:03:12.965Z,36.08
2018-11-29T06:05:05.955Z,35.99
2018-11-29T06:06:06.003Z,35.89
2018-11-29T06:07:59.004Z,35.23
2018-11-29T06:08:59.066Z,35.31
2018-11-29T06:10:52.048Z,34.45
2018-11-29T06:11:52.101Z,34.64
2018-11-29T06:13:45.080Z,33.59
2018-11-29T06:14:45.139Z,34.17
2018-11-29T06:16:38.128Z,35.02
2018-11-29T06:17:38.176Z,35.52
2018-11-29T06:19:31.193Z,35.02
2018-11-29T06:20:31.211Z,35.42
2018-11-29T06:22:24.697Z,35.33
2018-11-29T06:23:24.755Z,35.13
2018-11-29T06:25:17.771Z,34.66
2018-11-29T06:26:17.798Z,35.04
2018-11-29T06:28:10.782Z,35.04
2018-11-29T06:29:10.839Z,34.64
2018-11-29T06:31:03.822Z,33.40
2018-11-29T06:32:03.872Z,32.64
2018-11-29T06:33:56.852Z,31.79
2018-11-29T06:34:56.910Z,32.17
2018-11-29T06:36:49.901Z,30.46
2018-11-29T06:37:49.947Z,30.55
2018-11-29T06:39:42.938Z,29.03
2018-11-29T06:40:42.984Z,29.03
2018-11-29T06:42:35.964Z,28.93
2018-11-29T06:43:36.021Z,29.50
2018-11-29T06:45:29.042Z,28.36
2018-11-29T06:46:29.098Z,27.98
2018-11-29T06:48:22.082Z,27.50
2018-11-29T06:49:22.136Z,26.93
2018-11-29T06:51:15.118Z,26.26
2018-11-29T06:52:15.167Z,26.46
2018-11-29T06:54:08.151Z,25.89
2018-11-29T06:55:08.209Z,25.60
2018-11-29T06:57:01.193Z,25.22
2018-11-29T06:58:01.243Z,24.93
2018-11-29T06:59:54.227Z,25.31
2018-11-29T07:00:54.278Z,24.46
2018-11-29T07:02:47.263Z,23.60
2018-11-29T07:03:47.319Z,23.69
2018-11-29T07:05:40.383Z,23.79
2018-11-29T07:06:40.356Z,23.69
2018-11-29T07:08:33.333Z,23.69
2018-11-29T07:09:33.390Z,24.17
2018-11-29T07:11:26.395Z,24.46
2018-11-29T07:12:26.447Z,23.69
2018-11-29T07:14:19.433Z,23.69
2018-11-29T07:15:19.488Z,23.69
2018-11-29T07:17:12.473Z,23.50
2018-11-29T07:18:12.522Z,24.17
2018-11-29T07:20:05.513Z,23.69
2018-11-29T07:21:05.570Z,23.41
2018-11-29T07:22:58.553Z,24.37
2018-11-29T07:23:58.606Z,23.98
2018-11-29T07:25:51.596Z,24.84
2018-11-29T07:26:51.645Z,24.74
2018-11-29T07:28:44.623Z,23.41
2018-11-29T07:29:44.682Z,23.41
2018-11-29T07:31:37.669Z,23.41
2018-11-29T07:32:37.721Z,23.50
2018-11-29T07:34:30.698Z,24.46
2018-11-29T07:35:30.755Z,24.37
2018-11-29T07:37:23.743Z,25.22
2018-11-29T07:38:23.789Z,24.65
2018-11-29T07:40:16.771Z,25.03
2018-11-29T07:41:16.822Z,25.22
2018-11-29T07:43:09.805Z,25.70
2018-11-29T07:44:09.865Z,26.36
2018-11-29T07:46:02.850Z,26.17
2018-11-29T07:47:02.899Z,26.07
2018-11-29T07:48:55.878Z,26.55
2018-11-29T07:49:55.933Z,26.17
2018-11-29T07:51:48.924Z,25.98
2018-11-29T07:52:48.974Z,25.60
2018-11-29T07:54:41.953Z,26.84
2018-11-29T07:55:42.012Z,27.03
2018-11-29T07:57:34.999Z,26.93
2018-11-29T07:58:35.049Z,26.74
2018-11-29T08:00:28.040Z,26.74
2018-11-29T08:01:28.093Z,27.51
2018-11-29T08:03:21.072Z,27.33
2018-11-29T08:04:21.128Z,27.80
2018-11-29T08:06:14.123Z,29.41
2018-11-29T08:07:14.174Z,28.94
2018-11-29T08:09:07.157Z,30.28
2018-11-29T08:10:07.214Z,29.33
2018-11-29T08:12:00.207Z,29.50
2018-11-29T08:13:00.251Z,29.90
2018-11-29T08:14:53.230Z,30.57
2018-11-29T08:15:53.285Z,31.32
2018-11-29T08:17:46.274Z,30.57
2018-11-29T08:18:46.324Z,31.32
2018-11-29T08:20:39.307Z,31.42
2018-11-29T08:21:39.356Z,31.80
2018-11-29T08:23:32.345Z,33.33
2018-11-29T08:24:32.399Z,33.04
2018-11-29T08:26:25.390Z,33.23
2018-11-29T08:27:25.441Z,33.90
2018-11-29T08:29:18.419Z,33.33
2018-11-29T08:30:18.477Z,33.23
2018-11-29T08:32:11.478Z,34.47
2018-11-29T08:33:11.523Z,33.42
2018-11-29T08:35:04.505Z,32.85
2018-11-29T08:36:04.560Z,33.80
2018-11-29T08:37:57.545Z,33.80
2018-11-29T08:38:57.598Z,34.47
2018-11-29T08:40:50.586Z,35.33
2018-11-29T08:41:50.635Z,34.66
2018-11-29T08:43:43.622Z,36.37
2018-11-29T08:44:43.679Z,37.42
2018-11-29T08:46:36.666Z,35.99
2018-11-29T08:47:36.717Z,36.08
2018-11-29T08:49:29.705Z,35.13
2018-11-29T08:50:29.762Z,36.57
2018-11-29T08:52:22.747Z,38.75
2018-11-29T08:53:22.796Z,36.94
2018-11-29T08:55:15.782Z,38.01
2018-11-29T08:56:15.839Z,38.29
2018-11-29T08:58:08.835Z,40.01
2018-11-29T08:59:08.885Z,40.01
2018-11-29T09:01:01.875Z,40.20
2018-11-29T09:02:01.923Z,41.82
2018-11-29T09:03:54.906Z,41.44
2018-11-29T09:04:54.961Z,42.96
2018-11-29T09:06:47.954Z,42.11
2018-11-29T09:07:48.004Z,42.11
2018-11-29T09:09:40.986Z,41.92
2018-11-29T09:10:41.046Z,43.06
2018-11-29T09:12:34.024Z,42.30
2018-11-29T09:13:34.077Z,42.20
2018-11-29T09:15:27.058Z,42.77
2018-11-29T09:16:27.118Z,44.78
2018-11-29T09:18:20.106Z,44.49
2018-11-29T09:19:20.157Z,45.54
2018-11-29T09:21:13.144Z,46.49
2018-11-29T09:22:13.192Z,48.30
2018-11-29T09:24:06.179Z,48.58
2018-11-29T09:25:06.235Z,46.87
2018-11-29T09:26:59.221Z,46.68
2018-11-29T09:27:59.272Z,47.63
2018-11-29T09:29:52.256Z,48.11
2018-11-29T09:30:52.317Z,46.58
2018-11-29T09:32:45.304Z,45.63
2018-11-29T09:33:45.369Z,45.44
2018-11-29T09:35:38.338Z,48.68
2018-11-29T09:36:38.397Z,46.30
2018-11-29T09:38:31.388Z,46.11
2018-11-29T09:39:31.439Z,43.82
2018-11-29T09:41:24.429Z,45.92
2018-11-29T09:42:24.483Z,45.54
2018-11-29T09:44:17.465Z,46.49
2018-11-29T09:45:17.521Z,44.78
2018-11-29T09:47:10.514Z,46.01
2018-11-29T09:48:10.561Z,46.01
2018-11-29T09:50:03.552Z,46.39
2018-11-29T09:51:03.604Z,44.11
2018-11-29T09:52:56.595Z,46.11
2018-11-29T09:53:56.643Z,45.54
2018-11-29T09:55:49.645Z,46.39
2018-11-29T09:56:49.690Z,45.54
2018-11-29T09:58:42.677Z,46.68
2018-11-29T09:59:42.726Z,46.30
2018-11-29T10:01:35.714Z,47.92
2018-11-29T10:02:35.766Z,47.82
2018-11-29T10:04:28.944Z,47.34
2018-11-29T10:05:29.003Z,50.11
2018-11-29T10:07:21.986Z,48.23
2018-11-29T10:08:26.083Z,49.35
2018-11-29T10:10:15.015Z,52.01
2018-11-29T10:11:15.068Z,49.82
2018-11-29T10:13:08.067Z,51.06
2018-11-29T10:14:08.119Z,50.61
2018-11-29T10:16:01.103Z,52.59
2018-11-29T10:17:01.158Z,51.45
2018-11-29T10:18:54.157Z,51.47
2018-11-29T10:19:54.201Z,51.47
2018-11-29T10:21:47.190Z,52.33
2018-11-29T10:22:47.240Z,52.78
2018-11-29T10:24:40.219Z,51.47
2018-11-29T10:25:40.277Z,51.35
2018-11-29T10:27:33.270Z,51.64
2018-11-29T10:28:33.324Z,53.16
2018-11-29T10:30:26.304Z,53.35
2018-11-29T10:31:26.364Z,53.28
2018-11-29T10:33:19.348Z,53.95
2018-11-29T10:34:19.398Z,53.64
2018-11-29T10:36:12.392Z,53.92
2018-11-29T10:37:12.437Z,53.44
2018-11-29T10:39:05.421Z,54.24
2018-11-29T10:40:05.481Z,51.37
2018-11-29T10:41:58.464Z,52.33
2018-11-29T10:42:58.513Z,54.61
2018-11-29T10:44:51.496Z,56.24
2018-11-29T10:45:51.555Z,56.24
2018-11-29T10:47:44.543Z,56.71
2018-11-29T10:48:44.593Z,54.90
2018-11-29T10:50:37.584Z,56.71
2018-11-29T10:51:37.641Z,53.56
2018-11-29T10:53:36.160Z,57.76
2018-11-29T10:54:30.684Z,56.90
2018-11-29T10:56:23.676Z,56.52
2018-11-29T10:57:23.732Z,57.00
2018-11-29T10:59:16.710Z,58.04
2018-11-29T11:00:16.771Z,57.00
2018-11-29T11:02:09.758Z,57.48
2018-11-29T11:03:09.809Z,56.90
2018-11-29T11:05:02.796Z,55.76
2018-11-29T11:06:02.850Z,57.00
2018-11-29T11:07:55.838Z,54.43
2018-11-29T11:08:55.885Z,54.71
2018-11-29T11:10:48.867Z,57.00
2018-11-29T11:11:48.925Z,57.76
2018-11-29T11:13:41.917Z,56.90
2018-11-29T11:14:41.973Z,56.81
2018-11-29T11:16:34.963Z,57.19
2018-11-29T11:17:35.011Z,56.62
2018-11-29T11:19:28.001Z,55.57
2018-11-29T11:20:28.057Z,57.76
2018-11-29T11:22:21.555Z,54.24
2018-11-29T11:23:21.608Z,54.24
2018-11-29T11:25:14.604Z,54.52
2018-11-29T11:26:14.663Z,55.28
2018-11-29T11:28:07.652Z,54.55
2018-11-29T11:29:07.703Z,54.55
2018-11-29T11:31:00.696Z,55.69
2018-11-29T11:32:00.749Z,56.17
2018-11-29T11:33:53.734Z,56.17
2018-11-29T11:34:53.783Z,54.55
2018-11-29T11:36:46.775Z,55.88
2018-11-29T11:37:46.827Z,56.46
2018-11-29T11:39:39.813Z,53.97
2018-11-29T11:40:39.868Z,53.78
2018-11-29T11:42:32.860Z,56.74
2018-11-29T11:43:32.908Z,56.17
2018-11-29T11:45:25.981Z,56.74
2018-11-29T11:46:26.041Z,54.64
2018-11-29T11:48:19.030Z,55.12
2018-11-29T11:49:19.079Z,53.59
2018-11-29T11:51:12.065Z,52.73
2018-11-29T11:52:12.136Z,52.64
2018-11-29T11:54:05.118Z,56.17
2018-11-29T11:55:05.168Z,58.07
2018-11-29T11:56:58.171Z,56.65
2018-11-29T11:57:58.208Z,57.41
2018-11-29T11:59:51.193Z,57.79
2018-11-29T12:00:51.253Z,57.79
2018-11-29T12:02:44.307Z,58.75
2018-11-29T12:03:44.295Z,56.74
2018-11-29T12:05:37.286Z,56.07
2018-11-29T12:06:37.340Z,56.26
2018-11-29T12:08:30.329Z,55.41
2018-11-29T12:09:30.389Z,55.60
2018-11-29T12:11:23.374Z,55.21
2018-11-29T12:12:23.432Z,57.41
2018-11-29T12:14:16.434Z,56.55
2018-11-29T12:15:16.479Z,57.79
2018-11-29T12:17:09.473Z,56.74
2018-11-29T12:18:09.526Z,56.55
2018-11-29T12:20:02.520Z,54.74
2018-11-29T12:21:02.569Z,55.50
2018-11-29T12:22:57.084Z,57.98
2018-11-29T12:23:57.135Z,54.64
2018-11-29T12:25:50.117Z,56.46
2018-11-29T12:26:50.177Z,57.50
2018-11-29T12:28:43.169Z,58.94
2018-11-29T12:29:43.226Z,57.70
2018-11-29T12:31:36.207Z,57.70
2018-11-29T12:32:36.266Z,55.79
2018-11-29T12:34:29.265Z,55.31
2018-11-29T12:35:29.316Z,57.31
2018-11-29T12:37:22.309Z,56.46
2018-11-29T12:38:22.375Z,54.07
2018-11-29T12:40:15.348Z,56.07
2018-11-29T12:41:15.400Z,54.55
2018-11-29T12:43:08.395Z,56.84
2018-11-29T12:44:08.444Z,56.74
2018-11-29T12:46:01.426Z,54.45
2018-11-29T12:47:01.491Z,52.16
2018-11-29T12:48:54.477Z,51.68
2018-11-29T12:49:54.524Z,53.59
2018-11-29T12:51:48.619Z,52.55
2018-11-29T12:52:47.565Z,52.26
2018-11-29T12:54:40.553Z,51.21
2018-11-29T12:55:40.606Z,49.59
2018-11-29T12:57:33.597Z,51.78
2018-11-29T12:58:33.641Z,52.55
2018-11-29T13:00:26.626Z,49.21
2018-11-29T13:01:26.677Z,47.78
2018-11-29T13:03:19.668Z,49.49
2018-11-29T13:04:19.717Z,49.68
2018-11-29T13:06:12.701Z,47.49
2018-11-29T13:07:12.754Z,46.82
2018-11-29T13:09:05.774Z,48.07
2018-11-29T13:10:05.792Z,47.78
2018-11-29T13:11:59.212Z,47.87
2018-11-29T13:12:58.830Z,48.35
2018-11-29T13:14:51.815Z,47.87
2018-11-29T13:15:51.866Z,49.78
2018-11-29T13:17:44.850Z,49.40
2018-11-29T13:18:44.918Z,48.54
2018-11-29T13:20:37.907Z,49.30
2018-11-29T13:21:37.957Z,49.49
2018-11-29T13:23:30.942Z,46.92
2018-11-29T13:24:30.994Z,44.82
2018-11-29T13:26:23.979Z,45.87
2018-11-29T13:27:24.055Z,42.91
2018-11-29T13:29:17.046Z,45.10
2018-11-29T13:30:17.071Z,44.06
2018-11-29T13:32:10.072Z,44.34
2018-11-29T13:33:10.131Z,43.46
2018-11-29T13:35:03.116Z,43.49
2018-11-29T13:36:03.169Z,42.82
2018-11-29T13:37:56.148Z,43.39
2018-11-29T13:38:56.225Z,42.03
2018-11-29T13:40:49.191Z,41.94
2018-11-29T13:41:49.238Z,42.13
2018-11-29T13:43:42.234Z,43.46
2018-11-29T13:44:42.289Z,42.99
2018-11-29T13:46:35.270Z,43.18
2018-11-29T13:47:35.328Z,43.65
2018-11-29T13:49:28.320Z,44.60
2018-11-29T13:50:28.374Z,46.06
2018-11-29T13:52:21.353Z,44.63
2018-11-29T13:53:21.411Z,43.58
2018-11-29T13:55:14.911Z,43.29
2018-11-29T13:56:14.958Z,44.25
2018-11-29T13:58:07.949Z,43.58
2018-11-29T13:59:08.009Z,43.46
2018-11-29T14:01:01.520Z,44.51
2018-11-29T14:02:01.563Z,43.39
2018-11-29T14:03:54.548Z,42.80
2018-11-29T14:04:54.600Z,43.08
2018-11-29T14:06:47.583Z,44.13
2018-11-29T14:07:47.640Z,43.27
2018-11-29T14:09:40.632Z,46.13
2018-11-29T14:10:40.679Z,46.23
2018-11-29T14:12:33.661Z,44.70
2018-11-29T14:13:33.718Z,46.13
2018-11-29T14:15:26.709Z,46.70
2018-11-29T14:16:26.760Z,46.23
2018-11-29T14:18:19.743Z,47.37
2018-11-29T14:19:19.795Z,44.99
2018-11-29T14:21:12.872Z,45.18
2018-11-29T14:22:12.924Z,46.04
2018-11-29T14:24:05.916Z,46.61
2018-11-29T14:25:05.967Z,47.47
2018-11-29T14:26:58.949Z,44.51
2018-11-29T14:27:59.010Z,44.51
2018-11-29T14:29:51.997Z,45.65
2018-11-29T14:30:52.046Z,45.18
2018-11-29T14:32:45.022Z,44.23
2018-11-29T14:33:45.146Z,46.99
2018-11-29T14:35:38.083Z,48.23
2018-11-29T14:36:38.128Z,50.13
2018-11-29T14:38:31.111Z,49.56
2018-11-29T14:39:31.170Z,49.47
2018-11-29T14:41:24.161Z,46.13
2018-11-29T14:42:24.207Z,46.42
2018-11-29T14:44:17.199Z,46.61
2018-11-29T14:45:17.245Z,46.42
2018-11-29T14:47:10.227Z,46.80
2018-11-29T14:48:10.283Z,46.32
2018-11-29T14:50:03.274Z,46.89
2018-11-29T14:51:03.327Z,46.61
2018-11-29T14:52:56.354Z,47.28
2018-11-29T14:53:56.370Z,47.85
2018-11-29T14:55:49.361Z,45.94
2018-11-29T14:56:49.406Z,47.28
2018-11-29T14:58:42.387Z,46.99
2018-11-29T14:59:42.445Z,47.37
2018-11-29T15:01:35.946Z,47.94
2018-11-29T15:02:36.003Z,50.23
2018-11-29T15:04:28.985Z,48.99
2018-11-29T15:05:29.045Z,49.76
2018-11-29T15:07:22.018Z,50.13
2018-11-29T15:08:22.072Z,53.19
2018-11-29T15:10:15.061Z,52.90
2018-11-29T15:11:15.148Z,52.52
2018-11-29T15:13:08.097Z,53.66
2018-11-29T15:14:08.156Z,53.95
2018-11-29T15:16:01.146Z,54.71
2018-11-29T15:17:01.193Z,54.52
2018-11-29T15:18:54.179Z,53.28
2018-11-29T15:19:54.248Z,52.80
2018-11-29T15:21:47.230Z,50.99
2018-11-29T15:22:47.347Z,51.56
2018-11-29T15:24:40.267Z,51.37
2018-11-29T15:25:40.314Z,51.37
2018-11-29T15:27:33.295Z,51.18
2018-11-29T15:28:33.352Z,51.09
2018-11-29T15:30:26.339Z,53.28
2018-11-29T15:31:26.397Z,53.85
2018-11-29T15:33:19.380Z,53.66
2018-11-29T15:34:19.427Z,53.19
2018-11-29T15:36:12.416Z,54.71
2018-11-29T15:37:12.466Z,54.04
2018-11-29T15:39:05.443Z,55.76
2018-11-29T15:40:05.502Z,56.62
2018-11-29T15:41:58.488Z,59.00
2018-11-29T15:42:58.538Z,58.04
2018-11-29T15:44:51.530Z,58.72
2018-11-29T15:45:51.574Z,60.33
2018-11-29T15:47:44.555Z,59.28
2018-11-29T15:48:44.612Z,59.09
2018-11-29T15:50:37.613Z,58.43
2018-11-29T15:51:37.665Z,59.38
2018-11-29T15:53:30.652Z,61.48
2018-11-29T15:54:30.706Z,59.28
2018-11-29T15:56:23.698Z,61.48
2018-11-29T15:57:23.742Z,60.14
2018-11-29T15:59:16.722Z,61.57
2018-11-29T16:00:16.781Z,60.81
2018-11-29T16:02:09.772Z,61.67
2018-11-29T16:03:09.818Z,62.05
2018-11-29T16:05:02.804Z,60.81
2018-11-29T16:06:02.858Z,61.10
2018-11-29T16:07:56.349Z,61.67
2018-11-29T16:08:56.404Z,62.30
2018-11-29T16:10:49.394Z,61.67
2018-11-29T16:11:49.435Z,61.57
2018-11-29T16:13:42.426Z,61.57
2018-11-29T16:14:43.551Z,60.43
2018-11-29T16:16:35.487Z,61.86
2018-11-29T16:17:35.534Z,62.40
2018-11-29T16:19:28.517Z,61.93
2018-11-29T16:20:28.642Z,61.67
2018-11-29T16:22:21.565Z,62.12
2018-11-29T16:23:21.611Z,62.30
2018-11-29T16:25:14.604Z,65.26
2018-11-29T16:26:14.700Z,65.10
2018-11-29T16:28:07.640Z,68.24
2018-11-29T16:29:07.725Z,70.82
2018-11-29T16:31:00.687Z,71.01
2018-11-29T16:32:00.739Z,71.77
2018-11-29T16:33:53.729Z,74.73
2018-11-29T16:34:53.782Z,75.20
2018-11-29T16:36:46.775Z,78.35
2018-11-29T16:37:46.822Z,77.87
2018-11-29T16:39:39.803Z,79.30
2018-11-29T16:40:39.860Z,81.21
2018-11-29T16:42:32.852Z,84.30
2018-11-29T16:43:33.201Z,83.31
2018-11-29T16:45:25.891Z,83.44
2018-11-29T16:46:25.943Z,81.59
2018-11-29T16:48:18.932Z,80.73
2018-11-29T16:49:18.975Z,82.83
2018-11-29T16:51:11.979Z,82.35
2018-11-29T16:52:12.015Z,83.59
2018-11-29T16:54:04.994Z,84.45
2018-11-29T16:55:05.051Z,83.69
2018-11-29T16:56:58.040Z,83.50
2018-11-29T16:57:58.090Z,83.59
2018-11-29T16:59:51.080Z,85.02
2018-11-29T17:00:51.135Z,84.26
2018-11-29T17:02:44.125Z,83.97
2018-11-29T17:03:44.172Z,83.97
2018-11-29T17:05:37.162Z,83.97
2018-11-29T17:06:37.214Z,84.83
2018-11-29T17:08:30.700Z,83.59
2018-11-29T17:09:30.756Z,84.26
2018-11-29T17:11:23.743Z,85.60
2018-11-29T17:12:23.796Z,84.16
2018-11-29T17:14:16.774Z,86.07
2018-11-29T17:15:16.833Z,85.02
2018-11-29T17:17:09.823Z,83.88
2018-11-29T17:18:09.888Z,86.07
2018-11-29T17:20:02.853Z,85.02
2018-11-29T17:21:02.909Z,84.74
2018-11-29T17:22:55.903Z,84.55
2018-11-29T17:23:55.951Z,83.97
2018-11-29T17:25:48.943Z,85.02
2018-11-29T17:26:48.986Z,85.88
2018-11-29T17:28:41.972Z,85.69
2018-11-29T17:29:42.032Z,86.55
2018-11-29T17:31:35.050Z,87.40
2018-11-29T17:32:35.085Z,86.83
2018-11-29T17:34:28.060Z,85.78
2018-11-29T17:35:28.133Z,84.74
2018-11-29T17:37:21.105Z,85.69
2018-11-29T17:38:21.157Z,86.16
2018-11-29T17:40:14.148Z,86.07
2018-11-29T17:41:14.200Z,85.88
2018-11-29T17:43:07.186Z,86.55
2018-11-29T17:44:07.241Z,86.16
2018-11-29T17:46:00.254Z,86.65
2018-11-29T17:47:00.277Z,87.21
2018-11-29T17:48:53.263Z,86.07
2018-11-29T17:49:53.390Z,87.60
2018-11-29T17:51:46.305Z,86.36
2018-11-29T17:52:46.355Z,87.21
2018-11-29T17:54:39.340Z,87.31
2018-11-29T17:55:39.397Z,86.36
2018-11-29T17:57:32.396Z,87.69
2018-11-29T17:58:32.447Z,87.40
2018-11-29T18:00:25.430Z,87.60
2018-11-29T18:01:25.486Z,87.98
2018-11-29T18:03:18.490Z,87.50
2018-11-29T18:04:18.543Z,87.31
2018-11-29T18:06:11.588Z,87.55
2018-11-29T18:07:11.576Z,87.88
2018-11-29T18:09:04.557Z,88.26
2018-11-29T18:10:04.618Z,87.88
2018-11-29T18:11:57.606Z,88.17
2018-11-29T18:12:57.661Z,87.88
2018-11-29T18:14:50.644Z,87.79
2018-11-29T18:15:50.699Z,88.55
2018-11-29T18:17:43.692Z,87.60
2018-11-29T18:18:43.742Z,88.26
2018-11-29T18:20:36.765Z,88.45
2018-11-29T18:21:36.803Z,89.12
2018-11-29T18:23:29.786Z,88.22
2018-11-29T18:24:29.831Z,87.60
2018-11-29T18:26:22.864Z,88.89
2018-11-29T18:27:22.868Z,87.55
2018-11-29T18:29:15.865Z,87.74
2018-11-29T18:30:16.219Z,88.31
2018-11-29T18:32:08.900Z,87.36
2018-11-29T18:33:08.959Z,86.98
2018-11-29T18:35:01.951Z,87.65